sensor_id;sensor_type;location;lat;lon;timestamp;P1;durP1;ratioP1;P2;durP2;ratioP2
24897;SDS011;12957;49.434;8.684;2023-12-20T00:00:21;32.67;;;14.87;;
24897;SDS011;12957;49.434;8.684;2023-12-20T00:02:46;30.53;;;14.57;;
24897;SDS011;12957;49.434;8.684;2023-12-20T00:05:12;29.63;;;14.93;;
24897;SDS011;12957;49.434;8.684;2023-12-20T00:07:39;25.35;;;13.70;;
24897;SDS011;12957;49.434;8.684;2023-12-20T00:10:04;28.15;;;13.68;;
24897;SDS011;12957;49.434;8.684;2023-12-20T00:12:30;29.70;;;14.27;;
24897;SDS011;12957;49.434;8.684;2023-12-20T00:14:56;27.33;;;14.05;;
24897;SDS011;12957;49.434;8.684;2023-12-20T00:17:21;27.55;;;13.77;;
24897;SDS011;12957;49.434;8.684;2023-12-20T00:19:46;28.37;;;13.73;;
24897;SDS011;12957;49.434;8.684;2023-12-20T00:22:12;30.30;;;13.87;;
24897;SDS011;12957;49.434;8.684;2023-12-20T00:24:37;26.57;;;13.93;;
24897;SDS011;12957;49.434;8.684;2023-12-20T00:27:03;35.37;;;14.30;;
24897;SDS011;12957;49.434;8.684;2023-12-20T00:29:29;30.87;;;13.50;;
24897;SDS011;12957;49.434;8.684;2023-12-20T00:31:54;25.57;;;12.90;;
24897;SDS011;12957;49.434;8.684;2023-12-20T00:34:20;32.53;;;13.60;;
24897;SDS011;12957;49.434;8.684;2023-12-20T00:36:48;23.60;;;12.77;;
24897;SDS011;12957;49.434;8.684;2023-12-20T00:39:14;35.83;;;14.70;;
24897;SDS011;12957;49.434;8.684;2023-12-20T00:41:39;28.03;;;13.23;;
24897;SDS011;12957;49.434;8.684;2023-12-20T00:44:05;26.23;;;13.70;;
24897;SDS011;12957;49.434;8.684;2023-12-20T00:46:30;27.58;;;14.63;;
24897;SDS011;12957;49.434;8.684;2023-12-20T00:48:56;35.70;;;14.40;;
24897;SDS011;12957;49.434;8.684;2023-12-20T00:51:22;30.30;;;13.87;;
24897;SDS011;12957;49.434;8.684;2023-12-20T00:53:49;29.00;;;13.87;;
24897;SDS011;12957;49.434;8.684;2023-12-20T00:56:20;28.07;;;13.93;;
24897;SDS011;12957;49.434;8.684;2023-12-20T00:58:45;30.98;;;13.57;;
24897;SDS011;12957;49.434;8.684;2023-12-20T01:01:11;29.50;;;14.23;;
24897;SDS011;12957;49.434;8.684;2023-12-20T01:03:36;26.08;;;13.25;;
24897;SDS011;12957;49.434;8.684;2023-12-20T01:06:02;27.57;;;12.93;;
24897;SDS011;12957;49.434;8.684;2023-12-20T01:08:29;28.30;;;12.63;;
24897;SDS011;12957;49.434;8.684;2023-12-20T01:10:55;31.70;;;12.75;;
24897;SDS011;12957;49.434;8.684;2023-12-20T01:13:21;25.15;;;13.02;;
24897;SDS011;12957;49.434;8.684;2023-12-20T01:15:49;25.17;;;12.23;;
24897;SDS011;12957;49.434;8.684;2023-12-20T01:18:25;22.33;;;11.93;;
24897;SDS011;12957;49.434;8.684;2023-12-20T01:20:50;24.13;;;12.23;;
24897;SDS011;12957;49.434;8.684;2023-12-20T01:23:19;29.10;;;12.27;;
24897;SDS011;12957;49.434;8.684;2023-12-20T01:25:44;24.43;;;12.23;;
24897;SDS011;12957;49.434;8.684;2023-12-20T01:28:10;28.80;;;12.50;;
24897;SDS011;12957;49.434;8.684;2023-12-20T01:30:36;29.17;;;12.90;;
24897;SDS011;12957;49.434;8.684;2023-12-20T01:33:01;24.50;;;11.77;;
24897;SDS011;12957;49.434;8.684;2023-12-20T01:35:32;26.83;;;11.87;;
24897;SDS011;12957;49.434;8.684;2023-12-20T01:37:57;30.38;;;11.98;;
24897;SDS011;12957;49.434;8.684;2023-12-20T01:40:23;31.73;;;12.85;;
24897;SDS011;12957;49.434;8.684;2023-12-20T01:43:02;24.87;;;11.83;;
24897;SDS011;12957;49.434;8.684;2023-12-20T01:45:35;33.80;;;12.73;;
24897;SDS011;12957;49.434;8.684;2023-12-20T01:48:03;21.50;;;11.17;;
24897;SDS011;12957;49.434;8.684;2023-12-20T01:50:32;25.83;;;12.27;;
24897;SDS011;12957;49.434;8.684;2023-12-20T01:53:01;29.63;;;11.93;;
24897;SDS011;12957;49.434;8.684;2023-12-20T01:55:27;21.52;;;11.13;;
24897;SDS011;12957;49.434;8.684;2023-12-20T01:57:56;24.23;;;11.80;;
24897;SDS011;12957;49.434;8.684;2023-12-20T02:00:21;22.90;;;11.13;;
24897;SDS011;12957;49.434;8.684;2023-12-20T02:02:52;19.77;;;10.37;;
24897;SDS011;12957;49.434;8.684;2023-12-20T02:05:18;19.03;;;10.70;;
24897;SDS011;12957;49.434;8.684;2023-12-20T02:07:44;25.10;;;10.97;;
24897;SDS011;12957;49.434;8.684;2023-12-20T02:10:09;23.60;;;11.00;;
24897;SDS011;12957;49.434;8.684;2023-12-20T02:12:35;17.17;;;9.87;;
24897;SDS011;12957;49.434;8.684;2023-12-20T02:15:01;18.00;;;9.73;;
24897;SDS011;12957;49.434;8.684;2023-12-20T02:17:27;21.60;;;10.90;;
24897;SDS011;12957;49.434;8.684;2023-12-20T02:19:52;22.73;;;10.77;;
24897;SDS011;12957;49.434;8.684;2023-12-20T02:22:18;22.87;;;11.70;;
24897;SDS011;12957;49.434;8.684;2023-12-20T02:24:46;21.40;;;10.77;;
24897;SDS011;12957;49.434;8.684;2023-12-20T02:27:12;18.40;;;10.60;;
24897;SDS011;12957;49.434;8.684;2023-12-20T02:29:38;21.40;;;11.57;;
24897;SDS011;12957;49.434;8.684;2023-12-20T02:32:03;20.33;;;10.53;;
24897;SDS011;12957;49.434;8.684;2023-12-20T02:34:34;25.40;;;11.23;;
24897;SDS011;12957;49.434;8.684;2023-12-20T02:37:00;21.90;;;10.93;;
24897;SDS011;12957;49.434;8.684;2023-12-20T02:39:26;21.30;;;10.53;;
24897;SDS011;12957;49.434;8.684;2023-12-20T02:41:54;23.00;;;10.53;;
24897;SDS011;12957;49.434;8.684;2023-12-20T02:44:20;22.67;;;10.37;;
24897;SDS011;12957;49.434;8.684;2023-12-20T02:46:45;24.07;;;11.07;;
24897;SDS011;12957;49.434;8.684;2023-12-20T02:49:11;22.63;;;10.53;;
24897;SDS011;12957;49.434;8.684;2023-12-20T02:51:37;18.43;;;10.43;;
24897;SDS011;12957;49.434;8.684;2023-12-20T02:54:05;19.13;;;10.30;;
24897;SDS011;12957;49.434;8.684;2023-12-20T02:56:31;18.77;;;10.40;;
24897;SDS011;12957;49.434;8.684;2023-12-20T02:58:57;22.40;;;10.37;;
24897;SDS011;12957;49.434;8.684;2023-12-20T03:01:23;19.07;;;9.60;;
24897;SDS011;12957;49.434;8.684;2023-12-20T03:03:48;17.40;;;9.93;;
24897;SDS011;12957;49.434;8.684;2023-12-20T03:06:20;20.60;;;10.17;;
24897;SDS011;12957;49.434;8.684;2023-12-20T03:08:45;18.10;;;9.87;;
24897;SDS011;12957;49.434;8.684;2023-12-20T03:11:11;15.90;;;9.10;;
24897;SDS011;12957;49.434;8.684;2023-12-20T03:13:36;18.53;;;9.90;;
24897;SDS011;12957;49.434;8.684;2023-12-20T03:16:12;15.30;;;8.83;;
24897;SDS011;12957;49.434;8.684;2023-12-20T03:18:38;17.63;;;9.13;;
24897;SDS011;12957;49.434;8.684;2023-12-20T03:21:04;18.80;;;10.20;;
24897;SDS011;12957;49.434;8.684;2023-12-20T03:23:30;16.40;;;9.73;;
24897;SDS011;12957;49.434;8.684;2023-12-20T03:25:57;22.00;;;10.73;;
24897;SDS011;12957;49.434;8.684;2023-12-20T03:28:23;20.03;;;10.10;;
24897;SDS011;12957;49.434;8.684;2023-12-20T03:30:49;19.83;;;10.67;;
24897;SDS011;12957;49.434;8.684;2023-12-20T03:33:14;19.93;;;10.57;;
24897;SDS011;12957;49.434;8.684;2023-12-20T03:35:40;21.50;;;10.87;;
24897;SDS011;12957;49.434;8.684;2023-12-20T03:38:05;17.63;;;10.23;;
24897;SDS011;12957;49.434;8.684;2023-12-20T03:40:31;20.97;;;10.10;;
24897;SDS011;12957;49.434;8.684;2023-12-20T03:42:56;20.50;;;10.23;;
24897;SDS011;12957;49.434;8.684;2023-12-20T03:45:22;20.13;;;10.23;;
24897;SDS011;12957;49.434;8.684;2023-12-20T03:47:47;18.47;;;9.90;;
24897;SDS011;12957;49.434;8.684;2023-12-20T03:50:13;19.37;;;9.97;;
24897;SDS011;12957;49.434;8.684;2023-12-20T03:52:39;15.93;;;9.03;;
24897;SDS011;12957;49.434;8.684;2023-12-20T03:55:05;19.53;;;10.03;;
24897;SDS011;12957;49.434;8.684;2023-12-20T03:57:31;15.60;;;9.70;;
24897;SDS011;12957;49.434;8.684;2023-12-20T03:59:56;18.03;;;9.13;;
24897;SDS011;12957;49.434;8.684;2023-12-20T04:02:22;18.87;;;9.83;;
24897;SDS011;12957;49.434;8.684;2023-12-20T04:04:47;16.50;;;9.23;;
24897;SDS011;12957;49.434;8.684;2023-12-20T04:07:13;18.00;;;9.90;;
24897;SDS011;12957;49.434;8.684;2023-12-20T04:09:38;15.30;;;8.90;;
24897;SDS011;12957;49.434;8.684;2023-12-20T04:12:05;15.57;;;9.53;;
24897;SDS011;12957;49.434;8.684;2023-12-20T04:14:31;16.33;;;9.07;;
24897;SDS011;12957;49.434;8.684;2023-12-20T04:16:57;17.67;;;10.33;;
24897;SDS011;12957;49.434;8.684;2023-12-20T04:19:22;15.80;;;9.40;;
24897;SDS011;12957;49.434;8.684;2023-12-20T04:21:48;14.13;;;8.83;;
24897;SDS011;12957;49.434;8.684;2023-12-20T04:24:13;20.30;;;9.40;;
24897;SDS011;12957;49.434;8.684;2023-12-20T04:26:39;18.63;;;9.20;;
24897;SDS011;12957;49.434;8.684;2023-12-20T04:29:04;17.53;;;9.63;;
24897;SDS011;12957;49.434;8.684;2023-12-20T04:31:30;17.00;;;9.23;;
24897;SDS011;12957;49.434;8.684;2023-12-20T04:33:55;13.73;;;8.30;;
24897;SDS011;12957;49.434;8.684;2023-12-20T04:36:21;16.30;;;8.63;;
24897;SDS011;12957;49.434;8.684;2023-12-20T04:38:46;16.67;;;9.10;;
24897;SDS011;12957;49.434;8.684;2023-12-20T04:41:12;17.97;;;9.20;;
24897;SDS011;12957;49.434;8.684;2023-12-20T04:43:41;19.40;;;9.13;;
24897;SDS011;12957;49.434;8.684;2023-12-20T04:46:06;17.65;;;9.18;;
24897;SDS011;12957;49.434;8.684;2023-12-20T04:48:32;13.93;;;8.67;;
24897;SDS011;12957;49.434;8.684;2023-12-20T04:50:57;14.17;;;8.57;;
24897;SDS011;12957;49.434;8.684;2023-12-20T04:53:23;13.93;;;8.15;;
24897;SDS011;12957;49.434;8.684;2023-12-20T04:55:48;16.07;;;9.33;;
24897;SDS011;12957;49.434;8.684;2023-12-20T04:58:13;15.93;;;8.83;;
24897;SDS011;12957;49.434;8.684;2023-12-20T05:00:39;17.50;;;10.23;;
24897;SDS011;12957;49.434;8.684;2023-12-20T05:03:05;15.50;;;9.23;;
24897;SDS011;12957;49.434;8.684;2023-12-20T05:05:30;16.60;;;9.40;;
24897;SDS011;12957;49.434;8.684;2023-12-20T05:07:57;14.97;;;9.00;;
24897;SDS011;12957;49.434;8.684;2023-12-20T05:10:22;16.50;;;10.20;;
24897;SDS011;12957;49.434;8.684;2023-12-20T05:12:47;17.67;;;10.17;;
24897;SDS011;12957;49.434;8.684;2023-12-20T05:15:13;18.53;;;9.50;;
24897;SDS011;12957;49.434;8.684;2023-12-20T05:17:38;18.43;;;9.50;;
24897;SDS011;12957;49.434;8.684;2023-12-20T05:20:04;15.67;;;9.03;;
24897;SDS011;12957;49.434;8.684;2023-12-20T05:22:30;13.83;;;9.07;;
24897;SDS011;12957;49.434;8.684;2023-12-20T05:24:55;13.73;;;8.70;;
24897;SDS011;12957;49.434;8.684;2023-12-20T05:27:21;19.37;;;8.90;;
24897;SDS011;12957;49.434;8.684;2023-12-20T05:29:47;13.57;;;8.97;;
24897;SDS011;12957;49.434;8.684;2023-12-20T05:32:12;14.67;;;9.00;;
24897;SDS011;12957;49.434;8.684;2023-12-20T05:34:38;17.30;;;9.30;;
24897;SDS011;12957;49.434;8.684;2023-12-20T05:37:03;13.40;;;8.60;;
24897;SDS011;12957;49.434;8.684;2023-12-20T05:39:29;13.80;;;8.40;;
24897;SDS011;12957;49.434;8.684;2023-12-20T05:41:56;15.00;;;8.47;;
24897;SDS011;12957;49.434;8.684;2023-12-20T05:44:21;18.27;;;9.70;;
24897;SDS011;12957;49.434;8.684;2023-12-20T05:46:47;17.17;;;9.50;;
24897;SDS011;12957;49.434;8.684;2023-12-20T05:49:12;13.83;;;8.73;;
24897;SDS011;12957;49.434;8.684;2023-12-20T05:51:38;14.37;;;9.17;;
24897;SDS011;12957;49.434;8.684;2023-12-20T05:54:04;13.80;;;8.73;;
24897;SDS011;12957;49.434;8.684;2023-12-20T05:56:29;12.50;;;8.60;;
24897;SDS011;12957;49.434;8.684;2023-12-20T05:58:55;14.23;;;8.67;;
24897;SDS011;12957;49.434;8.684;2023-12-20T06:01:20;13.73;;;8.70;;
24897;SDS011;12957;49.434;8.684;2023-12-20T06:03:46;14.47;;;9.10;;
24897;SDS011;12957;49.434;8.684;2023-12-20T06:06:11;14.63;;;8.50;;
24897;SDS011;12957;49.434;8.684;2023-12-20T06:08:40;22.43;;;10.00;;
24897;SDS011;12957;49.434;8.684;2023-12-20T06:11:06;20.40;;;9.68;;
24897;SDS011;12957;49.434;8.684;2023-12-20T06:13:31;19.67;;;9.10;;
24897;SDS011;12957;49.434;8.684;2023-12-20T06:15:57;17.20;;;9.63;;
24897;SDS011;12957;49.434;8.684;2023-12-20T06:18:22;16.23;;;8.93;;
24897;SDS011;12957;49.434;8.684;2023-12-20T06:20:48;14.97;;;8.63;;
24897;SDS011;12957;49.434;8.684;2023-12-20T06:23:14;18.10;;;8.23;;
24897;SDS011;12957;49.434;8.684;2023-12-20T06:25:39;15.27;;;8.43;;
24897;SDS011;12957;49.434;8.684;2023-12-20T06:28:05;13.63;;;8.27;;
24897;SDS011;12957;49.434;8.684;2023-12-20T06:30:31;16.23;;;8.73;;
24897;SDS011;12957;49.434;8.684;2023-12-20T06:32:57;16.73;;;8.60;;
24897;SDS011;12957;49.434;8.684;2023-12-20T06:35:23;11.80;;;8.13;;
24897;SDS011;12957;49.434;8.684;2023-12-20T06:37:49;12.23;;;7.77;;
24897;SDS011;12957;49.434;8.684;2023-12-20T06:40:14;11.83;;;7.43;;
24897;SDS011;12957;49.434;8.684;2023-12-20T06:42:41;14.67;;;8.33;;
24897;SDS011;12957;49.434;8.684;2023-12-20T06:45:06;12.77;;;7.47;;
24897;SDS011;12957;49.434;8.684;2023-12-20T06:47:32;11.03;;;7.00;;
24897;SDS011;12957;49.434;8.684;2023-12-20T06:49:57;13.27;;;7.57;;
24897;SDS011;12957;49.434;8.684;2023-12-20T06:52:23;9.57;;;6.53;;
24897;SDS011;12957;49.434;8.684;2023-12-20T06:54:48;13.63;;;6.83;;
24897;SDS011;12957;49.434;8.684;2023-12-20T06:57:14;9.00;;;6.30;;
24897;SDS011;12957;49.434;8.684;2023-12-20T06:59:40;8.50;;;6.10;;
24897;SDS011;12957;49.434;8.684;2023-12-20T07:02:06;8.70;;;6.10;;
24897;SDS011;12957;49.434;8.684;2023-12-20T07:04:31;8.70;;;6.07;;
24897;SDS011;12957;49.434;8.684;2023-12-20T07:06:57;9.27;;;6.47;;
24897;SDS011;12957;49.434;8.684;2023-12-20T07:09:25;10.20;;;6.53;;
24897;SDS011;12957;49.434;8.684;2023-12-20T07:11:51;12.63;;;7.37;;
24897;SDS011;12957;49.434;8.684;2023-12-20T07:14:17;11.53;;;7.37;;
24897;SDS011;12957;49.434;8.684;2023-12-20T07:16:42;16.30;;;7.63;;
24897;SDS011;12957;49.434;8.684;2023-12-20T07:19:08;11.47;;;6.90;;
24897;SDS011;12957;49.434;8.684;2023-12-20T07:21:33;9.93;;;6.40;;
24897;SDS011;12957;49.434;8.684;2023-12-20T07:23:59;14.30;;;6.20;;
24897;SDS011;12957;49.434;8.684;2023-12-20T07:26:24;9.63;;;6.00;;
24897;SDS011;12957;49.434;8.684;2023-12-20T07:28:50;11.27;;;6.50;;
24897;SDS011;12957;49.434;8.684;2023-12-20T07:31:15;9.63;;;5.97;;
24897;SDS011;12957;49.434;8.684;2023-12-20T07:33:41;10.30;;;6.27;;
24897;SDS011;12957;49.434;8.684;2023-12-20T07:36:07;8.93;;;5.70;;
24897;SDS011;12957;49.434;8.684;2023-12-20T07:38:33;14.83;;;5.63;;
24897;SDS011;12957;49.434;8.684;2023-12-20T07:40:58;8.83;;;5.37;;
24897;SDS011;12957;49.434;8.684;2023-12-20T07:43:24;8.63;;;5.30;;
24897;SDS011;12957;49.434;8.684;2023-12-20T07:45:49;6.90;;;4.80;;
24897;SDS011;12957;49.434;8.684;2023-12-20T07:48:15;8.60;;;4.50;;
24897;SDS011;12957;49.434;8.684;2023-12-20T07:50:40;7.17;;;4.77;;
24897;SDS011;12957;49.434;8.684;2023-12-20T07:53:07;8.50;;;4.67;;
24897;SDS011;12957;49.434;8.684;2023-12-20T07:55:32;11.17;;;5.60;;
24897;SDS011;12957;49.434;8.684;2023-12-20T07:57:59;9.63;;;5.37;;
24897;SDS011;12957;49.434;8.684;2023-12-20T08:00:24;10.90;;;5.80;;
24897;SDS011;12957;49.434;8.684;2023-12-20T08:02:50;12.27;;;5.73;;
24897;SDS011;12957;49.434;8.684;2023-12-20T08:05:15;13.17;;;5.70;;
24897;SDS011;12957;49.434;8.684;2023-12-20T08:07:41;10.23;;;5.67;;
24897;SDS011;12957;49.434;8.684;2023-12-20T08:10:06;12.60;;;6.73;;
24897;SDS011;12957;49.434;8.684;2023-12-20T08:12:32;10.83;;;6.37;;
24897;SDS011;12957;49.434;8.684;2023-12-20T08:14:58;14.73;;;7.00;;
24897;SDS011;12957;49.434;8.684;2023-12-20T08:17:24;14.00;;;6.80;;
24897;SDS011;12957;49.434;8.684;2023-12-20T08:19:49;18.40;;;7.27;;
24897;SDS011;12957;49.434;8.684;2023-12-20T08:22:15;15.30;;;7.43;;
24897;SDS011;12957;49.434;8.684;2023-12-20T08:24:41;12.07;;;6.80;;
24897;SDS011;12957;49.434;8.684;2023-12-20T08:27:06;12.27;;;6.97;;
24897;SDS011;12957;49.434;8.684;2023-12-20T08:29:32;12.90;;;7.40;;
24897;SDS011;12957;49.434;8.684;2023-12-20T08:31:57;12.13;;;6.70;;
24897;SDS011;12957;49.434;8.684;2023-12-20T08:34:24;15.63;;;7.63;;
24897;SDS011;12957;49.434;8.684;2023-12-20T08:36:52;15.10;;;7.73;;
24897;SDS011;12957;49.434;8.684;2023-12-20T08:39:17;19.70;;;7.90;;
24897;SDS011;12957;49.434;8.684;2023-12-20T08:41:43;18.43;;;7.40;;
24897;SDS011;12957;49.434;8.684;2023-12-20T08:44:09;15.80;;;7.53;;
24897;SDS011;12957;49.434;8.684;2023-12-20T08:46:34;14.23;;;7.83;;
24897;SDS011;12957;49.434;8.684;2023-12-20T08:49:00;14.00;;;8.30;;
24897;SDS011;12957;49.434;8.684;2023-12-20T08:51:26;15.67;;;8.33;;
24897;SDS011;12957;49.434;8.684;2023-12-20T08:53:52;14.73;;;7.53;;
24897;SDS011;12957;49.434;8.684;2023-12-20T08:56:17;14.13;;;8.00;;
24897;SDS011;12957;49.434;8.684;2023-12-20T08:58:43;14.87;;;7.80;;
24897;SDS011;12957;49.434;8.684;2023-12-20T09:01:09;13.00;;;7.73;;
24897;SDS011;12957;49.434;8.684;2023-12-20T09:03:35;15.70;;;8.07;;
24897;SDS011;12957;49.434;8.684;2023-12-20T09:06:00;15.63;;;7.77;;
24897;SDS011;12957;49.434;8.684;2023-12-20T09:08:26;13.83;;;7.33;;
24897;SDS011;12957;49.434;8.684;2023-12-20T09:10:52;18.70;;;7.37;;
24897;SDS011;12957;49.434;8.684;2023-12-20T09:13:17;11.93;;;6.33;;
24897;SDS011;12957;49.434;8.684;2023-12-20T09:15:43;11.83;;;6.00;;
24897;SDS011;12957;49.434;8.684;2023-12-20T09:18:08;13.37;;;5.60;;
24897;SDS011;12957;49.434;8.684;2023-12-20T09:20:34;15.63;;;6.13;;
24897;SDS011;12957;49.434;8.684;2023-12-20T09:23:00;8.30;;;4.97;;
24897;SDS011;12957;49.434;8.684;2023-12-20T09:25:25;9.47;;;4.73;;
24897;SDS011;12957;49.434;8.684;2023-12-20T09:27:51;9.47;;;4.20;;
24897;SDS011;12957;49.434;8.684;2023-12-20T09:30:17;8.47;;;4.47;;
24897;SDS011;12957;49.434;8.684;2023-12-20T09:32:43;9.20;;;4.77;;
24897;SDS011;12957;49.434;8.684;2023-12-20T09:35:10;11.73;;;5.00;;
24897;SDS011;12957;49.434;8.684;2023-12-20T09:37:35;10.18;;;4.80;;
24897;SDS011;12957;49.434;8.684;2023-12-20T09:40:01;15.87;;;5.70;;
24897;SDS011;12957;49.434;8.684;2023-12-20T09:42:33;11.33;;;4.73;;
24897;SDS011;12957;49.434;8.684;2023-12-20T09:45:19;5.53;;;4.03;;
24897;SDS011;12957;49.434;8.684;2023-12-20T09:47:46;10.17;;;4.67;;
24897;SDS011;12957;49.434;8.684;2023-12-20T09:50:12;7.10;;;4.37;;
24897;SDS011;12957;49.434;8.684;2023-12-20T09:52:38;11.90;;;4.75;;
24897;SDS011;12957;49.434;8.684;2023-12-20T09:55:04;9.67;;;4.93;;
24897;SDS011;12957;49.434;8.684;2023-12-20T09:57:33;9.03;;;4.60;;
24897;SDS011;12957;49.434;8.684;2023-12-20T09:59:59;14.13;;;5.63;;
24897;SDS011;12957;49.434;8.684;2023-12-20T10:02:24;12.17;;;4.60;;
24897;SDS011;12957;49.434;8.684;2023-12-20T10:04:52;18.70;;;4.63;;
24897;SDS011;12957;49.434;8.684;2023-12-20T10:07:19;8.50;;;3.80;;
24897;SDS011;12957;49.434;8.684;2023-12-20T10:09:44;10.35;;;3.15;;
24897;SDS011;12957;49.434;8.684;2023-12-20T10:12:11;11.00;;;3.88;;
24897;SDS011;12957;49.434;8.684;2023-12-20T10:14:38;6.63;;;3.30;;
24897;SDS011;12957;49.434;8.684;2023-12-20T10:17:04;7.30;;;3.30;;
24897;SDS011;12957;49.434;8.684;2023-12-20T10:19:30;5.97;;;2.70;;
24897;SDS011;12957;49.434;8.684;2023-12-20T10:21:57;10.85;;;3.75;;
24897;SDS011;12957;49.434;8.684;2023-12-20T10:24:28;10.98;;;3.20;;
24897;SDS011;12957;49.434;8.684;2023-12-20T10:27:04;11.93;;;3.20;;
24897;SDS011;12957;49.434;8.684;2023-12-20T10:29:33;11.93;;;3.30;;
24897;SDS011;12957;49.434;8.684;2023-12-20T10:31:59;6.47;;;2.85;;
24897;SDS011;12957;49.434;8.684;2023-12-20T10:34:25;7.70;;;2.97;;
24897;SDS011;12957;49.434;8.684;2023-12-20T10:36:51;8.60;;;3.00;;
24897;SDS011;12957;49.434;8.684;2023-12-20T10:39:16;6.85;;;2.88;;
24897;SDS011;12957;49.434;8.684;2023-12-20T10:41:43;6.87;;;2.63;;
24897;SDS011;12957;49.434;8.684;2023-12-20T10:44:09;8.40;;;2.60;;
24897;SDS011;12957;49.434;8.684;2023-12-20T10:46:35;4.10;;;2.60;;
24897;SDS011;12957;49.434;8.684;2023-12-20T10:49:03;10.65;;;2.67;;
24897;SDS011;12957;49.434;8.684;2023-12-20T10:51:30;6.20;;;2.40;;
24897;SDS011;12957;49.434;8.684;2023-12-20T10:53:56;9.88;;;2.78;;
24897;SDS011;12957;49.434;8.684;2023-12-20T10:56:22;11.00;;;2.40;;
24897;SDS011;12957;49.434;8.684;2023-12-20T10:58:48;10.88;;;2.70;;
24897;SDS011;12957;49.434;8.684;2023-12-20T11:01:14;6.45;;;2.70;;
24897;SDS011;12957;49.434;8.684;2023-12-20T11:03:43;12.60;;;2.80;;
24897;SDS011;12957;49.434;8.684;2023-12-20T11:06:25;9.95;;;2.50;;
24897;SDS011;12957;49.434;8.684;2023-12-20T11:11:40;6.27;;;2.53;;
24897;SDS011;12957;49.434;8.684;2023-12-20T11:17:11;11.95;;;2.55;;
24897;SDS011;12957;49.434;8.684;2023-12-20T11:22:26;6.45;;;2.63;;
24897;SDS011;12957;49.434;8.684;2023-12-20T11:24:53;9.40;;;2.40;;
24897;SDS011;12957;49.434;8.684;2023-12-20T11:27:19;9.65;;;2.50;;
24897;SDS011;12957;49.434;8.684;2023-12-20T11:29:51;8.65;;;2.88;;
24897;SDS011;12957;49.434;8.684;2023-12-20T11:34:54;4.28;;;2.38;;
24897;SDS011;12957;49.434;8.684;2023-12-20T11:37:21;6.78;;;2.70;;
24897;SDS011;12957;49.434;8.684;2023-12-20T11:39:54;6.25;;;2.40;;
24897;SDS011;12957;49.434;8.684;2023-12-20T11:42:20;8.95;;;2.92;;
24897;SDS011;12957;49.434;8.684;2023-12-20T11:44:46;6.90;;;2.67;;
24897;SDS011;12957;49.434;8.684;2023-12-20T11:47:12;9.93;;;2.90;;
24897;SDS011;12957;49.434;8.684;2023-12-20T11:49:38;10.60;;;3.27;;
24897;SDS011;12957;49.434;8.684;2023-12-20T11:52:04;5.60;;;2.63;;
24897;SDS011;12957;49.434;8.684;2023-12-20T11:54:30;9.50;;;3.00;;
24897;SDS011;12957;49.434;8.684;2023-12-20T11:56:55;9.65;;;2.50;;
24897;SDS011;12957;49.434;8.684;2023-12-20T11:59:21;7.60;;;2.67;;
24897;SDS011;12957;49.434;8.684;2023-12-20T12:01:50;12.10;;;3.33;;
24897;SDS011;12957;49.434;8.684;2023-12-20T12:04:16;5.43;;;2.47;;
24897;SDS011;12957;49.434;8.684;2023-12-20T12:06:43;13.63;;;2.70;;
24897;SDS011;12957;49.434;8.684;2023-12-20T12:09:09;5.97;;;2.90;;
24897;SDS011;12957;49.434;8.684;2023-12-20T12:11:35;13.00;;;3.27;;
24897;SDS011;12957;49.434;8.684;2023-12-20T12:14:00;9.32;;;2.65;;
24897;SDS011;12957;49.434;8.684;2023-12-20T12:16:26;6.13;;;2.80;;
24897;SDS011;12957;49.434;8.684;2023-12-20T12:18:55;9.98;;;2.75;;
24897;SDS011;12957;49.434;8.684;2023-12-20T12:21:22;5.05;;;2.88;;
24897;SDS011;12957;49.434;8.684;2023-12-20T12:23:47;12.15;;;2.90;;
24897;SDS011;12957;49.434;8.684;2023-12-20T12:26:13;7.40;;;2.70;;
24897;SDS011;12957;49.434;8.684;2023-12-20T12:28:41;9.87;;;3.00;;
24897;SDS011;12957;49.434;8.684;2023-12-20T12:31:07;6.25;;;2.67;;
24897;SDS011;12957;49.434;8.684;2023-12-20T12:33:33;7.57;;;3.30;;
24897;SDS011;12957;49.434;8.684;2023-12-20T12:36:00;9.68;;;2.83;;
24897;SDS011;12957;49.434;8.684;2023-12-20T12:38:26;6.53;;;2.87;;
24897;SDS011;12957;49.434;8.684;2023-12-20T12:40:52;10.40;;;3.60;;
24897;SDS011;12957;49.434;8.684;2023-12-20T12:43:19;14.23;;;3.10;;
24897;SDS011;12957;49.434;8.684;2023-12-20T12:45:44;10.60;;;2.93;;
24897;SDS011;12957;49.434;8.684;2023-12-20T12:48:10;7.53;;;2.87;;
24897;SDS011;12957;49.434;8.684;2023-12-20T12:50:35;13.23;;;3.30;;
24897;SDS011;12957;49.434;8.684;2023-12-20T12:53:01;11.55;;;3.60;;
24897;SDS011;12957;49.434;8.684;2023-12-20T12:55:27;6.47;;;3.35;;
24897;SDS011;12957;49.434;8.684;2023-12-20T12:57:53;9.70;;;3.20;;
24897;SDS011;12957;49.434;8.684;2023-12-20T13:00:19;11.40;;;3.10;;
24897;SDS011;12957;49.434;8.684;2023-12-20T13:02:44;7.28;;;3.20;;
24897;SDS011;12957;49.434;8.684;2023-12-20T13:05:10;5.80;;;3.03;;
24897;SDS011;12957;49.434;8.684;2023-12-20T13:07:35;7.75;;;3.15;;
24897;SDS011;12957;49.434;8.684;2023-12-20T13:10:02;6.43;;;3.33;;
24897;SDS011;12957;49.434;8.684;2023-12-20T13:12:28;11.15;;;5.10;;
24897;SDS011;12957;49.434;8.684;2023-12-20T13:14:54;19.40;;;5.17;;
24897;SDS011;12957;49.434;8.684;2023-12-20T13:17:20;11.37;;;4.33;;
24897;SDS011;12957;49.434;8.684;2023-12-20T13:19:46;13.48;;;4.43;;
24897;SDS011;12957;49.434;8.684;2023-12-20T13:22:11;17.33;;;5.03;;
24897;SDS011;12957;49.434;8.684;2023-12-20T13:24:37;11.37;;;3.40;;
24897;SDS011;12957;49.434;8.684;2023-12-20T13:27:02;6.20;;;2.60;;
24897;SDS011;12957;49.434;8.684;2023-12-20T13:29:28;9.10;;;3.17;;
24897;SDS011;12957;49.434;8.684;2023-12-20T13:31:54;6.70;;;3.00;;
24897;SDS011;12957;49.434;8.684;2023-12-20T13:34:19;6.37;;;2.67;;
24897;SDS011;12957;49.434;8.684;2023-12-20T13:36:45;10.03;;;2.87;;
24897;SDS011;12957;49.434;8.684;2023-12-20T13:39:12;9.57;;;2.67;;
24897;SDS011;12957;49.434;8.684;2023-12-20T13:41:38;10.30;;;3.20;;
24897;SDS011;12957;49.434;8.684;2023-12-20T13:44:03;10.87;;;3.90;;
24897;SDS011;12957;49.434;8.684;2023-12-20T13:46:29;6.60;;;2.70;;
24897;SDS011;12957;49.434;8.684;2023-12-20T13:48:55;7.17;;;3.03;;
24897;SDS011;12957;49.434;8.684;2023-12-20T13:51:20;11.67;;;3.63;;
24897;SDS011;12957;49.434;8.684;2023-12-20T13:53:46;7.07;;;3.07;;
24897;SDS011;12957;49.434;8.684;2023-12-20T13:56:13;13.45;;;3.13;;
24897;SDS011;12957;49.434;8.684;2023-12-20T13:58:39;13.97;;;3.77;;
24897;SDS011;12957;49.434;8.684;2023-12-20T14:01:06;12.73;;;3.63;;
24897;SDS011;12957;49.434;8.684;2023-12-20T14:03:32;14.73;;;3.17;;
24897;SDS011;12957;49.434;8.684;2023-12-20T14:05:58;6.03;;;3.00;;
24897;SDS011;12957;49.434;8.684;2023-12-20T14:08:23;10.30;;;3.28;;
24897;SDS011;12957;49.434;8.684;2023-12-20T14:10:49;11.23;;;3.40;;
24897;SDS011;12957;49.434;8.684;2023-12-20T14:13:15;6.97;;;3.13;;
24897;SDS011;12957;49.434;8.684;2023-12-20T14:15:40;9.35;;;3.20;;
24897;SDS011;12957;49.434;8.684;2023-12-20T14:18:06;17.20;;;4.00;;
24897;SDS011;12957;49.434;8.684;2023-12-20T14:20:33;7.22;;;3.42;;
24897;SDS011;12957;49.434;8.684;2023-12-20T14:23:01;11.52;;;3.15;;
24897;SDS011;12957;49.434;8.684;2023-12-20T14:25:27;11.63;;;3.50;;
24897;SDS011;12957;49.434;8.684;2023-12-20T14:27:53;10.70;;;3.40;;
24897;SDS011;12957;49.434;8.684;2023-12-20T14:30:18;9.13;;;2.63;;
24897;SDS011;12957;49.434;8.684;2023-12-20T14:32:44;11.40;;;3.27;;
24897;SDS011;12957;49.434;8.684;2023-12-20T14:35:09;8.20;;;2.77;;
24897;SDS011;12957;49.434;8.684;2023-12-20T14:37:35;11.77;;;3.50;;